PWSweather.com
Personal Weather Stations
Station Observations
KMAMEDFI2
Medfield, MA 02052

Medfield, MA 02052

Lat: 42.1900822, Lon: -71.3296889

Elevation: 138

Station Type: Rainwise WS MK-III

http://www.medfieldweather.com

Latest ConditionsUpdated 8:40:00 PM EST Tuesday, Feb 21, 2017
Currently Today's Max Today's Min Today's Average
Temperature 37.9°F3.3°C 47.2°F8.4°C 15.9°F-8.9°C 32.7°F0.4°C
Dew Point 28.3°F-2.1°C 29.3°F-1.5°C 14.2°F-9.9°C 21.1°F-6.1°C
Winds 2.4 mph SSW3.9 kmh SSW 3.2 mph NW5.1 kmh NW - 0.8 mph 1.3 kmh
Wind Gusts 3.9 mph6.3 kmh 5.2 mph8.4 kmh - -
Humidity 68% 93% 31% 67%
Pressure 30.18 in1022.0 mb 30.37 in1028.4 mb 30.18 in1022.0 mb -
Hour Temp Dew Point Humidity Winds Wind Gusts Pressure Precip Precip Rate Daily Precip Total
08:40 PM 37.9°F3.3°C 28.3°F-2.1°C 68% 2.4 mph SSW3.9 kmh SSW 3.9 mph6.3 kmh 30.18 in1022.0 mb - 0.00 in0.0 mm 0.00 in0.0 mm
08:30 PM 37.9°F3.3°C 27.5°F-2.5°C 66% 3.0 mph S4.8 kmh S 5.2 mph8.4 kmh 30.19 in1022.4 mb - 0.00 in0.0 mm 0.00 in0.0 mm
08:20 PM 37.8°F3.2°C 27.8°F-2.3°C 67% 0.6 mph S1.0 kmh S 2.6 mph4.2 kmh 30.19 in1022.4 mb - 0.00 in0.0 mm 0.00 in0.0 mm
08:10 PM 37.8°F3.2°C 28.2°F-2.1°C 68% 0.1 mph SSW0.2 kmh SSW -- 30.20 in1022.7 mb - 0.00 in0.0 mm 0.00 in0.0 mm
08:00 PM 37.8°F3.2°C 28.9°F-1.7°C 70% 1.0 mph SE1.6 kmh SE 2.6 mph4.2 kmh 30.20 in1022.7 mb - 0.00 in0.0 mm 0.00 in0.0 mm
07:50 PM 38.1°F3.4°C 29.2°F-1.6°C 70% 1.2 mph S1.9 kmh S 2.6 mph4.2 kmh 30.20 in1022.7 mb - 0.00 in0.0 mm 0.00 in0.0 mm
07:40 PM 38.2°F3.4°C 29.3°F-1.5°C 70% 1.0 mph S1.6 kmh S 2.6 mph4.2 kmh 30.20 in1022.7 mb - 0.00 in0.0 mm 0.00 in0.0 mm
07:30 PM 38.1°F3.4°C 29.2°F-1.6°C 70% 1.8 mph SSE2.9 kmh SSE 2.6 mph4.2 kmh 30.19 in1022.4 mb - 0.00 in0.0 mm 0.00 in0.0 mm
07:20 PM 38.2°F3.4°C 29.3°F-1.5°C 70% 1.3 mph SSW2.1 kmh SSW 2.6 mph4.2 kmh 30.18 in1022.0 mb - 0.00 in0.0 mm 0.00 in0.0 mm
07:10 PM 38.3°F3.5°C 29.0°F-1.7°C 69% 1.3 mph SE2.1 kmh SE 2.6 mph4.2 kmh 30.18 in1022.0 mb - 0.00 in0.0 mm 0.00 in0.0 mm
07:00 PM 38.5°F3.6°C 28.5°F-1.9°C 67% 1.1 mph SSE1.8 kmh SSE 2.6 mph4.2 kmh 30.20 in1022.7 mb - 0.00 in0.0 mm 0.00 in0.0 mm
06:50 PM 38.7°F3.7°C 28.7°F-1.8°C 67% 0.5 mph SE0.8 kmh SE 1.3 mph2.1 kmh 30.21 in1023.0 mb - 0.00 in0.0 mm 0.00 in0.0 mm
06:40 PM 38.9°F3.8°C 28.1°F-2.2°C 65% 0.8 mph S1.3 kmh S -- 30.21 in1023.0 mb - 0.00 in0.0 mm 0.00 in0.0 mm
06:30 PM 39.1°F3.9°C 27.9°F-2.3°C 64% 0.9 mph S1.4 kmh S 2.6 mph4.2 kmh 30.21 in1023.0 mb - 0.00 in0.0 mm 0.00 in0.0 mm
06:20 PM 39.3°F4.1°C 27.7°F-2.4°C 63% 0.9 mph SE1.4 kmh SE 2.6 mph4.2 kmh 30.21 in1023.0 mb - 0.00 in0.0 mm 0.00 in0.0 mm
06:10 PM 39.5°F4.2°C 26.8°F-2.9°C 60% 2.0 mph SSW3.2 kmh SSW 5.2 mph8.4 kmh 30.23 in1023.7 mb - 0.00 in0.0 mm 0.00 in0.0 mm
06:00 PM 39.9°F4.4°C 26.3°F-3.2°C 58% 2.1 mph S3.4 kmh S 2.6 mph4.2 kmh 30.23 in1023.7 mb - 0.00 in0.0 mm 0.00 in0.0 mm
05:50 PM 40.2°F4.6°C 25.7°F-3.5°C 56% 2.2 mph SSW3.5 kmh SSW 5.2 mph8.4 kmh 30.23 in1023.7 mb - 0.00 in0.0 mm 0.00 in0.0 mm
05:40 PM 40.3°F4.6°C 25.0°F-3.9°C 54% 0.9 mph SE1.4 kmh SE 2.6 mph4.2 kmh 30.22 in1023.4 mb - 0.00 in0.0 mm 0.00 in0.0 mm
05:30 PM 40.9°F4.9°C 25.0°F-3.9°C 53% 1.3 mph S2.1 kmh S 5.2 mph8.4 kmh 30.22 in1023.4 mb - 0.00 in0.0 mm 0.00 in0.0 mm
05:20 PM 41.5°F5.3°C 24.7°F-4.1°C 51% 1.1 mph NW1.8 kmh NW 2.6 mph4.2 kmh 30.22 in1023.4 mb - 0.00 in0.0 mm 0.00 in0.0 mm
05:10 PM 42.2°F5.7°C 24.4°F-4.2°C 49% 2.6 mph SE4.2 kmh SE 2.6 mph4.2 kmh 30.23 in1023.7 mb - 0.00 in0.0 mm 0.00 in0.0 mm
05:00 PM 42.8°F6.0°C 23.9°F-4.5°C 47% 1.6 mph SE2.6 kmh SE 5.2 mph8.4 kmh 30.23 in1023.7 mb - 0.00 in0.0 mm 0.00 in0.0 mm
04:50 PM 42.9°F6.1°C 23.0°F-5.0°C 45% 0.9 mph SSE1.4 kmh SSE 2.6 mph4.2 kmh 30.23 in1023.7 mb - 0.00 in0.0 mm 0.00 in0.0 mm
04:40 PM 43.2°F6.2°C 24.8°F-4.0°C 48% Calm Calm 1.3 mph2.1 kmh 30.23 in1023.7 mb - 0.00 in0.0 mm 0.00 in0.0 mm
04:30 PM 43.6°F6.4°C 23.1°F-4.9°C 44% 0.4 mph S0.6 kmh S 2.6 mph4.2 kmh 30.23 in1023.7 mb - 0.00 in0.0 mm 0.00 in0.0 mm
04:20 PM 43.9°F6.6°C 22.3°F-5.4°C 42% 0.9 mph S1.4 kmh S 2.6 mph4.2 kmh 30.24 in1024.0 mb - 0.00 in0.0 mm 0.00 in0.0 mm
04:10 PM 44.2°F6.8°C 21.9°F-5.6°C 41% 1.5 mph SE2.4 kmh SE 2.6 mph4.2 kmh 30.24 in1024.0 mb - 0.00 in0.0 mm 0.00 in0.0 mm
04:00 PM 44.5°F6.9°C 21.6°F-5.8°C 40% 2.5 mph SSE4.0 kmh SSE 3.9 mph6.3 kmh 30.24 in1024.0 mb - 0.00 in0.0 mm 0.00 in0.0 mm
03:50 PM 44.9°F7.2°C 21.4°F-5.9°C 39% 1.0 mph SE1.6 kmh SE 2.6 mph4.2 kmh 30.25 in1024.4 mb - 0.00 in0.0 mm 0.00 in0.0 mm
03:40 PM 45.7°F7.6°C 21.5°F-5.8°C 38% 2.6 mph ESE4.2 kmh ESE 5.2 mph8.4 kmh 30.25 in1024.4 mb - 0.00 in0.0 mm 0.00 in0.0 mm
03:30 PM 46.1°F7.8°C 21.3°F-5.9°C 37% 1.1 mph SSE1.8 kmh SSE 2.6 mph4.2 kmh 30.26 in1024.7 mb - 0.00 in0.0 mm 0.00 in0.0 mm
03:20 PM 46.3°F7.9°C 21.5°F-5.8°C 37% 0.7 mph S1.1 kmh S 2.6 mph4.2 kmh 30.27 in1025.1 mb - 0.00 in0.0 mm 0.00 in0.0 mm
03:10 PM 46.3°F7.9°C 20.1°F-6.6°C 35% 1.8 mph WSW2.9 kmh WSW 2.6 mph4.2 kmh 30.27 in1025.1 mb - 0.00 in0.0 mm 0.00 in0.0 mm
03:00 PM 46.3°F7.9°C 20.1°F-6.6°C 35% 2.4 mph S3.9 kmh S 5.2 mph8.4 kmh 30.27 in1025.1 mb - 0.00 in0.0 mm 0.00 in0.0 mm
02:50 PM 46.3°F7.9°C 20.8°F-6.2°C 36% 2.0 mph SE3.2 kmh SE 2.6 mph4.2 kmh 30.27 in1025.1 mb - 0.00 in0.0 mm 0.00 in0.0 mm
02:40 PM 46.5°F8.1°C 21.6°F-5.8°C 37% 0.5 mph SSE0.8 kmh SSE 2.6 mph4.2 kmh 30.28 in1025.4 mb - 0.00 in0.0 mm 0.00 in0.0 mm
02:30 PM 46.7°F8.2°C 20.5°F-6.4°C 35% 2.6 mph SE4.2 kmh SE 5.2 mph8.4 kmh 30.29 in1025.7 mb - 0.00 in0.0 mm 0.00 in0.0 mm
02:20 PM 46.8°F8.2°C 21.2°F-6.0°C 36% 2.1 mph SE3.4 kmh SE 2.6 mph4.2 kmh 30.29 in1025.7 mb - 0.00 in0.0 mm 0.00 in0.0 mm
02:10 PM 46.8°F8.2°C 19.1°F-7.2°C 33% 2.0 mph SW3.2 kmh SW 2.6 mph4.2 kmh 30.29 in1025.7 mb - 0.00 in0.0 mm 0.00 in0.0 mm
02:00 PM 46.8°F8.2°C 17.7°F-7.9°C 31% 0.3 mph W0.5 kmh W 2.6 mph4.2 kmh 30.29 in1025.7 mb - 0.00 in0.0 mm 0.00 in0.0 mm
01:50 PM 46.6°F8.1°C 18.3°F-7.6°C 32% 1.5 mph S2.4 kmh S 2.6 mph4.2 kmh 30.29 in1025.7 mb - 0.00 in0.0 mm 0.00 in0.0 mm
01:40 PM 46.9°F8.3°C 18.5°F-7.5°C 32% 2.3 mph SSE3.7 kmh SSE 3.9 mph6.3 kmh 30.29 in1025.7 mb - 0.00 in0.0 mm 0.00 in0.0 mm
01:30 PM 47.2°F8.4°C 22.2°F-5.4°C 37% Calm Calm 3.9 mph6.3 kmh 30.30 in1026.1 mb - 0.00 in0.0 mm 0.00 in0.0 mm
01:20 PM 46.1°F7.8°C 21.2°F-6.0°C 37% 2.2 mph E3.5 kmh E 2.6 mph4.2 kmh 30.31 in1026.4 mb - 0.00 in0.0 mm 0.00 in0.0 mm
01:10 PM 45.6°F7.6°C 22.0°F-5.6°C 39% 2.6 mph E4.2 kmh E 2.6 mph4.2 kmh 30.31 in1026.4 mb - 0.00 in0.0 mm 0.00 in0.0 mm
01:00 PM 45.4°F7.4°C 21.3°F-5.9°C 38% 1.3 mph SSE2.1 kmh SSE 2.6 mph4.2 kmh 30.32 in1026.8 mb - 0.00 in0.0 mm 0.00 in0.0 mm
12:50 PM 46.3°F7.9°C 21.4°F-5.9°C 37% 3.2 mph NW5.1 kmh NW 5.2 mph8.4 kmh 30.33 in1027.1 mb - 0.00 in0.0 mm 0.00 in0.0 mm
12:40 PM 45.8°F7.7°C 21.6°F-5.8°C 38% 2.0 mph SW3.2 kmh SW 5.2 mph8.4 kmh 30.33 in1027.1 mb - 0.00 in0.0 mm 0.00 in0.0 mm
12:30 PM 44.9°F7.2°C 21.4°F-5.9°C 39% 1.3 mph NE2.1 kmh NE 2.6 mph4.2 kmh 30.33 in1027.1 mb - 0.00 in0.0 mm 0.00 in0.0 mm
12:20 PM 44.6°F7.0°C 21.8°F-5.7°C 40% 2.1 mph SW3.4 kmh SW 3.9 mph6.3 kmh 30.34 in1027.4 mb - 0.00 in0.0 mm 0.00 in0.0 mm
12:10 PM 45.0°F7.2°C 22.7°F-5.2°C 41% 0.2 mph SW0.3 kmh SW -- 30.35 in1027.8 mb - 0.00 in0.0 mm 0.00 in0.0 mm
12:00 PM 44.9°F7.2°C 23.7°F-4.6°C 43% 1.1 mph SE1.8 kmh SE 2.6 mph4.2 kmh 30.35 in1027.8 mb - 0.00 in0.0 mm 0.00 in0.0 mm
11:50 AM 43.9°F6.6°C 23.4°F-4.8°C 44% 2.8 mph E4.5 kmh E 2.6 mph4.2 kmh 30.35 in1027.8 mb - 0.00 in0.0 mm 0.00 in0.0 mm
11:40 AM 44.6°F7.0°C 23.4°F-4.8°C 43% 2.5 mph SE4.0 kmh SE 5.2 mph8.4 kmh 30.37 in1028.4 mb - 0.00 in0.0 mm 0.00 in0.0 mm
11:30 AM 44.8°F7.1°C 23.7°F-4.6°C 43% 1.8 mph S2.9 kmh S 2.6 mph4.2 kmh 30.37 in1028.4 mb - 0.00 in0.0 mm 0.00 in0.0 mm
11:20 AM 43.5°F6.4°C 24.1°F-4.4°C 46% 1.2 mph SE1.9 kmh SE 2.6 mph4.2 kmh 30.37 in1028.4 mb - 0.00 in0.0 mm 0.00 in0.0 mm
11:10 AM 43.2°F6.2°C 23.8°F-4.6°C 46% 2.2 mph SW3.5 kmh SW 3.9 mph6.3 kmh 30.37 in1028.4 mb - 0.00 in0.0 mm 0.00 in0.0 mm
11:00 AM 43.1°F6.2°C 23.7°F-4.6°C 46% 1.2 mph SSW1.9 kmh SSW 5.2 mph8.4 kmh 30.37 in1028.4 mb - 0.00 in0.0 mm 0.00 in0.0 mm
10:50 AM 42.1°F5.6°C 24.3°F-4.3°C 49% 1.1 mph NE1.8 kmh NE 2.6 mph4.2 kmh 30.37 in1028.4 mb - 0.00 in0.0 mm 0.00 in0.0 mm
10:40 AM 41.6°F5.3°C 23.9°F-4.5°C 49% 0.7 mph SE1.1 kmh SE 1.3 mph2.1 kmh 30.37 in1028.4 mb - 0.00 in0.0 mm 0.00 in0.0 mm
10:30 AM 41.4°F5.2°C 24.6°F-4.1°C 51% 1.5 mph S2.4 kmh S 2.6 mph4.2 kmh 30.37 in1028.4 mb - 0.00 in0.0 mm 0.00 in0.0 mm
10:20 AM 40.3°F4.6°C 24.1°F-4.4°C 52% 1.2 mph E1.9 kmh E 2.6 mph4.2 kmh 30.37 in1028.4 mb - 0.00 in0.0 mm 0.00 in0.0 mm
10:10 AM 40.5°F4.7°C 24.7°F-4.1°C 53% 1.4 mph NNE2.3 kmh NNE 2.6 mph4.2 kmh 30.37 in1028.4 mb - 0.00 in0.0 mm 0.00 in0.0 mm
10:00 AM 38.9°F3.8°C 23.6°F-4.7°C 54% 1.6 mph SE2.6 kmh SE 2.6 mph4.2 kmh 30.37 in1028.4 mb - 0.00 in0.0 mm 0.00 in0.0 mm
09:50 AM 38.3°F3.5°C 23.1°F-4.9°C 54% 1.2 mph ESE1.9 kmh ESE 2.6 mph4.2 kmh 30.36 in1028.1 mb - 0.00 in0.0 mm 0.00 in0.0 mm
09:40 AM 37.8°F3.2°C 22.6°F-5.2°C 54% 0.3 mph NNE0.5 kmh NNE -- 30.37 in1028.4 mb - 0.00 in0.0 mm 0.00 in0.0 mm
09:30 AM 36.4°F2.4°C 23.0°F-5.0°C 58% Calm Calm -- 30.37 in1028.4 mb - 0.00 in0.0 mm 0.00 in0.0 mm
09:20 AM 34.6°F1.4°C 21.8°F-5.7°C 59% 0.3 mph SE0.5 kmh SE -- 30.37 in1028.4 mb - 0.00 in0.0 mm 0.00 in0.0 mm
09:10 AM 33.4°F0.8°C 20.2°F-6.6°C 58% 0.8 mph SW1.3 kmh SW 1.3 mph2.1 kmh 30.37 in1028.4 mb - 0.00 in0.0 mm 0.00 in0.0 mm
09:00 AM 32.9°F0.5°C 20.5°F-6.4°C 60% 0.3 mph SE0.5 kmh SE 2.6 mph4.2 kmh 30.37 in1028.4 mb - 0.00 in0.0 mm 0.00 in0.0 mm
08:50 AM 31.4°F-0.3°C 19.5°F-6.9°C 61% 1.5 mph NW2.4 kmh NW 2.6 mph4.2 kmh 30.35 in1027.8 mb - 0.00 in0.0 mm 0.00 in0.0 mm
08:40 AM 30.0°F-1.1°C 20.0°F-6.7°C 66% 1.3 mph SE2.1 kmh SE 2.6 mph4.2 kmh 30.35 in1027.8 mb - 0.00 in0.0 mm 0.00 in0.0 mm
08:30 AM 28.2°F-2.1°C 20.4°F-6.4°C 72% 0.3 mph S0.5 kmh S 1.3 mph2.1 kmh 30.35 in1027.8 mb - 0.00 in0.0 mm 0.00 in0.0 mm
08:20 AM 25.9°F-3.4°C 22.0°F-5.6°C 85% 0.2 mph S0.3 kmh S 1.3 mph2.1 kmh 30.35 in1027.8 mb - 0.00 in0.0 mm 0.00 in0.0 mm
08:10 AM 23.6°F-4.7°C 21.9°F-5.6°C 93% Calm Calm -- 30.35 in1027.8 mb - 0.00 in0.0 mm 0.00 in0.0 mm
08:00 AM 22.7°F-5.2°C 20.9°F-6.2°C 93% Calm Calm -- 30.35 in1027.8 mb - 0.00 in0.0 mm 0.00 in0.0 mm
07:50 AM 20.6°F-6.3°C 18.9°F-7.3°C 93% Calm Calm -- 30.36 in1028.1 mb - 0.00 in0.0 mm 0.00 in0.0 mm
07:40 AM 18.5°F-7.5°C 16.8°F-8.4°C 93% Calm Calm -- 30.35 in1027.8 mb - 0.00 in0.0 mm 0.00 in0.0 mm
07:30 AM 17.0°F-8.3°C 15.3°F-9.3°C 93% Calm Calm -- 30.36 in1028.1 mb - 0.00 in0.0 mm 0.00 in0.0 mm
07:20 AM 16.5°F-8.6°C 14.9°F-9.5°C 93% Calm Calm -- 30.35 in1027.8 mb - 0.00 in0.0 mm 0.00 in0.0 mm
07:10 AM 16.2°F-8.8°C 14.5°F-9.7°C 93% Calm Calm -- 30.36 in1028.1 mb - 0.00 in0.0 mm 0.00 in0.0 mm
07:00 AM 16.2°F-8.8°C 14.6°F-9.7°C 93% Calm Calm -- 30.36 in1028.1 mb - 0.00 in0.0 mm 0.00 in0.0 mm
06:50 AM 15.9°F-8.9°C 14.2°F-9.9°C 93% Calm Calm -- 30.36 in1028.1 mb - 0.00 in0.0 mm 0.00 in0.0 mm
06:40 AM 16.4°F-8.7°C 14.8°F-9.6°C 93% Calm Calm -- 30.35 in1027.8 mb - 0.00 in0.0 mm 0.00 in0.0 mm
06:30 AM 16.5°F-8.6°C 14.8°F-9.6°C 93% Calm Calm -- 30.35 in1027.8 mb - 0.00 in0.0 mm 0.00 in0.0 mm
06:20 AM 16.9°F-8.4°C 15.2°F-9.3°C 93% Calm Calm -- 30.34 in1027.4 mb - 0.00 in0.0 mm 0.00 in0.0 mm
06:10 AM 16.7°F-8.5°C 15.1°F-9.4°C 93% Calm Calm -- 30.34 in1027.4 mb - 0.00 in0.0 mm 0.00 in0.0 mm
06:00 AM 17.0°F-8.3°C 15.3°F-9.3°C 93% Calm Calm -- 30.33 in1027.1 mb - 0.00 in0.0 mm 0.00 in0.0 mm
05:50 AM 16.5°F-8.6°C 14.8°F-9.6°C 93% Calm Calm -- 30.34 in1027.4 mb - 0.00 in0.0 mm 0.00 in0.0 mm
05:40 AM 16.4°F-8.7°C 14.8°F-9.6°C 93% Calm Calm -- 30.33 in1027.1 mb - 0.00 in0.0 mm 0.00 in0.0 mm
05:30 AM 16.4°F-8.7°C 14.8°F-9.6°C 93% Calm Calm -- 30.33 in1027.1 mb - 0.00 in0.0 mm 0.00 in0.0 mm
05:20 AM 17.0°F-8.3°C 15.3°F-9.3°C 93% Calm Calm -- 30.33 in1027.1 mb - 0.00 in0.0 mm 0.00 in0.0 mm
05:10 AM 17.2°F-8.2°C 15.5°F-9.2°C 93% Calm Calm -- 30.33 in1027.1 mb - 0.00 in0.0 mm 0.00 in0.0 mm
05:00 AM 17.0°F-8.3°C 15.3°F-9.3°C 93% Calm Calm -- 30.33 in1027.1 mb - 0.00 in0.0 mm 0.00 in0.0 mm
04:50 AM 17.6°F-8.0°C 16.0°F-8.9°C 93% Calm Calm -- 30.34 in1027.4 mb - 0.00 in0.0 mm 0.00 in0.0 mm
04:40 AM 17.7°F-7.9°C 16.0°F-8.9°C 93% Calm Calm -- 30.34 in1027.4 mb - 0.00 in0.0 mm 0.00 in0.0 mm
04:30 AM 18.0°F-7.8°C 16.4°F-8.7°C 93% Calm Calm -- 30.34 in1027.4 mb - 0.00 in0.0 mm 0.00 in0.0 mm
04:20 AM 18.5°F-7.5°C 16.9°F-8.4°C 93% Calm Calm -- 30.34 in1027.4 mb - 0.00 in0.0 mm 0.00 in0.0 mm
04:10 AM 18.6°F-7.4°C 17.0°F-8.3°C 93% Calm Calm -- 30.33 in1027.1 mb - 0.00 in0.0 mm 0.00 in0.0 mm
04:00 AM 19.1°F-7.2°C 17.4°F-8.1°C 93% Calm Calm -- 30.34 in1027.4 mb - 0.00 in0.0 mm 0.00 in0.0 mm
03:50 AM 19.4°F-7.0°C 17.8°F-7.9°C 93% Calm Calm -- 30.34 in1027.4 mb - 0.00 in0.0 mm 0.00 in0.0 mm
03:40 AM 19.2°F-7.1°C 17.5°F-8.1°C 93% Calm Calm -- 30.34 in1027.4 mb - 0.00 in0.0 mm 0.00 in0.0 mm
03:30 AM 18.9°F-7.3°C 17.3°F-8.2°C 93% Calm Calm -- 30.34 in1027.4 mb - 0.00 in0.0 mm 0.00 in0.0 mm
03:20 AM 19.8°F-6.8°C 18.1°F-7.7°C 93% Calm Calm -- 30.35 in1027.8 mb - 0.00 in0.0 mm 0.00 in0.0 mm
03:10 AM 20.3°F-6.5°C 18.6°F-7.4°C 93% Calm Calm -- 30.35 in1027.8 mb - 0.00 in0.0 mm 0.00 in0.0 mm
03:00 AM 20.4°F-6.4°C 18.7°F-7.4°C 93% Calm Calm -- 30.35 in1027.8 mb - 0.00 in0.0 mm 0.00 in0.0 mm
02:50 AM 20.4°F-6.4°C 18.7°F-7.4°C 93% Calm Calm -- 30.35 in1027.8 mb - 0.00 in0.0 mm 0.00 in0.0 mm
02:40 AM 20.2°F-6.6°C 18.5°F-7.5°C 93% Calm Calm -- 30.34 in1027.4 mb - 0.00 in0.0 mm 0.00 in0.0 mm
02:30 AM 20.8°F-6.2°C 19.0°F-7.2°C 93% Calm Calm -- 30.34 in1027.4 mb - 0.00 in0.0 mm 0.00 in0.0 mm
02:20 AM 20.9°F-6.2°C 18.9°F-7.3°C 92% Calm Calm -- 30.34 in1027.4 mb - 0.00 in0.0 mm 0.00 in0.0 mm
02:10 AM 20.8°F-6.2°C 19.0°F-7.2°C 93% Calm Calm -- 30.33 in1027.1 mb - 0.00 in0.0 mm 0.00 in0.0 mm
02:00 AM 21.1°F-6.1°C 19.1°F-7.2°C 92% Calm Calm -- 30.33 in1027.1 mb - 0.00 in0.0 mm 0.00 in0.0 mm
01:50 AM 21.6°F-5.8°C 19.9°F-6.7°C 93% Calm Calm -- 30.32 in1026.8 mb - 0.00 in0.0 mm 0.00 in0.0 mm
01:40 AM 21.1°F-6.1°C 19.4°F-7.0°C 93% 0.2 mph SW0.3 kmh SW -- 30.34 in1027.4 mb - 0.00 in0.0 mm 0.00 in0.0 mm
01:30 AM 21.0°F-6.1°C 19.1°F-7.2°C 92% Calm Calm -- 30.34 in1027.4 mb - 0.00 in0.0 mm 0.00 in0.0 mm
01:20 AM 21.9°F-5.6°C 18.9°F-7.3°C 88% Calm Calm -- 30.33 in1027.1 mb - 0.00 in0.0 mm 0.00 in0.0 mm
01:10 AM 22.6°F-5.2°C 19.0°F-7.2°C 86% Calm Calm -- 30.33 in1027.1 mb - 0.00 in0.0 mm 0.00 in0.0 mm
01:00 AM 23.3°F-4.8°C 19.1°F-7.2°C 84% Calm Calm -- 30.33 in1027.1 mb - 0.00 in0.0 mm 0.00 in0.0 mm
12:50 AM 23.5°F-4.7°C 17.7°F-7.9°C 78% Calm Calm -- 30.33 in1027.1 mb - 0.00 in0.0 mm 0.00 in0.0 mm
12:40 AM 23.4°F-4.8°C 18.4°F-7.6°C 81% Calm Calm -- 30.33 in1027.1 mb - 0.00 in0.0 mm 0.00 in0.0 mm
12:30 AM 23.6°F-4.7°C 18.6°F-7.4°C 81% Calm Calm -- 30.34 in1027.4 mb - 0.00 in0.0 mm 0.00 in0.0 mm
12:20 AM 23.9°F-4.5°C 18.3°F-7.6°C 79% Calm Calm -- 30.34 in1027.4 mb - 0.00 in0.0 mm 0.00 in0.0 mm
12:00 AM 24.9°F-3.9°C 19.0°F-7.2°C 78% Calm Calm -- 30.34 in1027.4 mb - 0.00 in0.0 mm 0.00 in0.0 mm